Time;durP1;ratioP1;P1;durP2;ratioP2;P2;SDS_P1;SDS_P2;PMS_P1;PMS_P2;Temp;Humidity;BMP_temperature;BMP_pressure;BME280_temperature;BME280_humidity;BME280_pressure;Samples;Min_cycle;Max_cycle;Signal;HPM_P1;HPM_P2
2022/08/15 00:01:14;;;;;;;15.10;10.68;;;22.00;99.90;;;;;;5052850;28;20110;-69
2022/08/15 00:03:44;;;;;;;11.70;9.73;;;21.80;99.90;;;;;;5050955;28;20045;-68
2022/08/15 00:06:13;;;;;;;12.27;10.05;;;21.90;99.90;;;;;;5049894;28;20059;-69
2022/08/15 00:08:44;;;;;;;13.57;9.55;;;21.80;99.90;;;;;;5050216;28;20049;-69
2022/08/15 00:11:15;;;;;;;14.88;9.38;;;22.00;99.90;;;;;;5050086;28;20048;-69
2022/08/15 00:13:43;;;;;;;17.20;10.07;;;21.90;99.90;;;;;;5049637;28;20049;-69
2022/08/15 00:16:10;;;;;;;12.18;10.18;;;21.90;99.90;;;;;;5051033;28;20052;-69
2022/08/15 00:18:35;;;;;;;12.05;9.60;;;21.90;99.90;;;;;;5049830;28;20051;-69
2022/08/15 00:21:03;;;;;;;13.57;10.55;;;21.90;99.90;;;;;;5049592;28;20049;-69
2022/08/15 00:23:29;;;;;;;11.23;9.65;;;21.80;99.90;;;;;;5049658;28;20040;-69
2022/08/15 00:25:59;;;;;;;13.02;9.88;;;21.80;99.90;;;;;;5049498;28;20525;-69
2022/08/15 00:28:28;;;;;;;11.57;9.73;;;21.80;99.90;;;;;;5050987;28;20041;-69
2022/08/15 00:30:54;;;;;;;14.95;10.40;;;21.80;99.90;;;;;;5050361;28;20049;-68
2022/08/15 00:33:21;;;;;;;14.23;9.23;;;21.80;99.90;;;;;;5050304;28;20056;-68
2022/08/15 00:35:48;;;;;;;13.45;10.18;;;21.80;99.90;;;;;;5049745;28;20055;-68
2022/08/15 00:38:18;;;;;;;13.65;10.38;;;21.80;99.90;;;;;;5049374;28;20068;-68
2022/08/15 00:43:41;;;;;;;14.70;10.48;;;21.80;99.90;;;;;;5048878;28;20048;-68
2022/08/15 00:46:11;;;;;;;12.82;9.68;;;21.80;99.90;;;;;;5049242;28;20486;-68
2022/08/15 00:48:42;;;;;;;12.43;10.07;;;21.90;99.90;;;;;;5049429;28;20041;-68
2022/08/15 00:51:14;;;;;;;12.60;10.70;;;21.90;99.90;;;;;;5048858;28;20148;-68
2022/08/15 00:53:42;;;;;;;12.30;9.88;;;21.80;99.90;;;;;;5048676;28;20049;-68
2022/08/15 00:56:10;;;;;;;15.27;10.15;;;21.90;99.90;;;;;;5049267;28;20122;-68
2022/08/15 00:58:36;;;;;;;13.68;10.57;;;21.90;99.90;;;;;;5032307;28;20052;-68
2022/08/15 01:01:03;;;;;;;15.57;10.23;;;21.90;99.90;;;;;;5048926;28;20041;-68
2022/08/15 01:03:33;;;;;;;12.80;9.35;;;21.90;99.90;;;;;;5050243;28;20049;-68
2022/08/15 01:06:00;;;;;;;13.82;10.05;;;21.90;99.90;;;;;;5057467;28;20163;-68
2022/08/15 01:08:34;;;;;;;13.38;9.25;;;21.90;99.90;;;;;;5052214;28;20049;-68
2022/08/15 01:11:04;;;;;;;13.68;10.07;;;21.90;99.90;;;;;;5050370;28;20641;-68
2022/08/15 01:13:32;;;;;;;12.25;9.60;;;21.90;99.90;;;;;;5048627;28;20056;-68
2022/08/15 01:15:58;;;;;;;10.43;9.13;;;21.90;99.90;;;;;;5032414;28;20048;-68
2022/08/15 01:18:23;;;;;;;15.43;10.18;;;21.90;99.90;;;;;;5048964;28;20052;-68
2022/08/15 01:20:53;;;;;;;16.52;9.45;;;21.90;99.90;;;;;;5048586;28;20516;-68
2022/08/15 01:23:37;;;;;;;14.50;8.98;;;21.80;99.90;;;;;;5048604;28;20065;-68
2022/08/15 01:26:06;;;;;;;11.05;9.45;;;21.80;99.90;;;;;;5050252;28;20572;-68
2022/08/15 01:28:41;;;;;;;12.23;9.48;;;21.80;99.90;;;;;;5048604;28;20048;-68
2022/08/15 01:31:13;;;;;;;10.63;8.90;;;21.80;99.90;;;;;;5048676;28;20077;-68
2022/08/15 01:33:43;;;;;;;12.20;9.13;;;21.90;99.90;;;;;;5048517;28;20607;-68
2022/08/15 01:36:09;;;;;;;10.73;8.70;;;22.00;99.90;;;;;;5048670;28;20049;-68
2022/08/15 01:38:47;;;;;;;13.23;8.45;;;22.00;99.90;;;;;;5049970;28;20401;-68
2022/08/15 01:41:26;;;;;;;14.23;8.57;;;22.00;99.90;;;;;;5048527;28;20068;-68
2022/08/15 01:44:22;;;;;;;10.18;8.25;;;22.00;99.90;;;;;;5050216;28;20049;-68
2022/08/15 01:47:03;;;;;;;12.02;8.75;;;21.90;99.90;;;;;;5050030;28;20048;-68
2022/08/15 01:49:35;;;;;;;12.55;8.52;;;21.90;99.90;;;;;;5048044;28;20065;-68
2022/08/15 01:52:04;;;;;;;10.38;8.75;;;21.90;99.90;;;;;;5048862;28;20088;-68
2022/08/15 01:54:36;;;;;;;12.32;9.60;;;21.80;99.90;;;;;;5048228;28;20077;-68
2022/08/15 01:57:03;;;;;;;11.98;9.10;;;21.80;99.90;;;;;;5052059;28;20033;-68
2022/08/15 01:59:29;;;;;;;10.30;9.20;;;21.80;99.90;;;;;;5052244;28;20052;-68
2022/08/15 02:01:58;;;;;;;14.18;9.25;;;21.70;99.90;;;;;;5053738;28;20041;-68
2022/08/15 02:04:30;;;;;;;12.93;8.80;;;21.60;99.90;;;;;;5051894;28;20116;-68
2022/08/15 02:07:03;;;;;;;11.32;9.02;;;21.60;99.90;;;;;;5052521;28;20049;-68
2022/08/15 02:09:30;;;;;;;13.93;10.00;;;21.60;99.90;;;;;;5053871;28;20401;-68
2022/08/15 02:12:00;;;;;;;11.50;9.25;;;21.50;99.90;;;;;;5058179;28;20045;-68
2022/08/15 02:14:27;;;;;;;13.38;9.30;;;21.50;99.90;;;;;;5061166;28;20037;-68
2022/08/15 02:16:53;;;;;;;13.82;9.35;;;21.50;99.90;;;;;;5053207;28;20320;-68
2022/08/15 02:19:19;;;;;;;10.73;9.35;;;21.40;99.90;;;;;;5051998;28;20099;-68
2022/08/15 02:21:47;;;;;;;14.60;9.10;;;21.50;99.90;;;;;;5051995;28;20045;-68
2022/08/15 02:24:20;;;;;;;11.45;9.20;;;21.40;99.90;;;;;;5051365;28;20045;-68
2022/08/15 02:26:46;;;;;;;12.32;9.60;;;21.30;99.90;;;;;;5035551;28;20102;-68
2022/08/15 02:29:12;;;;;;;13.43;8.93;;;21.30;99.90;;;;;;5052035;28;20446;-68
2022/08/15 02:31:40;;;;;;;12.55;8.90;;;21.30;99.90;;;;;;5051894;28;20048;-68
2022/08/15 02:34:07;;;;;;;11.20;9.00;;;21.30;99.90;;;;;;5051447;28;20102;-68
2022/08/15 02:36:35;;;;;;;11.88;9.18;;;21.30;99.90;;;;;;5035055;28;20048;-68
2022/08/15 02:39:05;;;;;;;10.27;9.18;;;21.20;99.90;;;;;;5051699;28;20060;-68
2022/08/15 02:41:35;;;;;;;12.75;9.45;;;21.20;99.90;;;;;;5051353;28;20124;-68
2022/08/15 02:44:02;;;;;;;12.98;9.18;;;21.10;99.90;;;;;;5034976;28;20123;-68
2022/08/15 02:46:29;;;;;;;10.38;9.23;;;21.10;99.90;;;;;;5051343;28;20041;-68
2022/08/15 02:48:58;;;;;;;10.65;8.88;;;21.10;99.90;;;;;;5050930;28;20041;-68
2022/08/15 02:51:25;;;;;;;10.38;9.27;;;21.00;99.90;;;;;;5051342;28;20044;-68
2022/08/15 02:53:52;;;;;;;13.48;9.32;;;21.00;99.90;;;;;;5051154;28;20051;-68
2022/08/15 02:56:21;;;;;;;17.83;10.07;;;21.00;99.90;;;;;;5052421;28;20041;-68
2022/08/15 02:58:47;;;;;;;12.00;9.05;;;21.00;99.90;;;;;;5053335;28;20048;-68
2022/08/15 03:01:13;;;;;;;11.93;10.10;;;21.00;99.90;;;;;;5034429;28;20047;-68
2022/08/15 03:03:43;;;;;;;12.48;10.05;;;21.00;99.90;;;;;;5050598;28;20048;-68
2022/08/15 03:06:12;;;;;;;13.82;10.40;;;21.00;99.90;;;;;;5050985;28;20036;-68
2022/08/15 03:08:40;;;;;;;13.60;10.45;;;20.90;99.90;;;;;;5051307;28;20573;-68
2022/08/15 03:11:07;;;;;;;10.88;9.77;;;20.80;99.90;;;;;;5051134;28;20144;-68
2022/08/15 03:13:34;;;;;;;14.25;9.45;;;20.80;99.90;;;;;;5050797;28;20048;-68
2022/08/15 03:16:01;;;;;;;13.65;10.32;;;20.80;99.90;;;;;;5050746;28;20052;-68
2022/08/15 03:18:32;;;;;;;12.50;9.40;;;20.80;99.90;;;;;;5053215;28;20059;-68
2022/08/15 03:20:59;;;;;;;12.48;9.63;;;20.80;99.90;;;;;;5058919;28;20045;-68
2022/08/15 03:23:27;;;;;;;11.80;9.60;;;20.70;99.90;;;;;;5052359;28;20041;-68
2022/08/15 03:25:59;;;;;;;12.20;9.65;;;20.80;99.90;;;;;;5050738;28;20045;-67
2022/08/15 03:28:28;;;;;;;16.30;10.02;;;20.70;99.90;;;;;;5034065;28;20041;-68
2022/08/15 03:30:59;;;;;;;11.88;9.88;;;20.70;99.90;;;;;;5051901;28;20094;-68
2022/08/15 03:33:25;;;;;;;11.82;9.27;;;20.70;99.90;;;;;;5050218;28;20059;-68
2022/08/15 03:35:51;;;;;;;14.65;10.48;;;20.70;99.90;;;;;;5050285;28;20053;-68
2022/08/15 03:38:18;;;;;;;12.00;10.20;;;20.70;99.90;;;;;;5050422;28;20052;-68
2022/08/15 03:40:47;;;;;;;13.52;10.25;;;20.60;99.90;;;;;;5050202;28;20079;-68
2022/08/15 03:43:18;;;;;;;12.75;9.88;;;20.60;99.90;;;;;;5050061;28;20041;-68
2022/08/15 03:45:48;;;;;;;10.20;9.07;;;20.50;99.90;;;;;;5051696;28;20163;-68
2022/08/15 03:48:14;;;;;;;13.55;9.82;;;20.50;99.90;;;;;;5050431;28;20047;-68
2022/08/15 03:50:39;;;;;;;15.38;10.50;;;20.50;99.90;;;;;;5049823;28;20041;-68
2022/08/15 03:53:07;;;;;;;15.93;10.02;;;20.50;99.90;;;;;;5033607;28;20590;-68
2022/08/15 03:55:34;;;;;;;14.45;10.07;;;20.40;99.90;;;;;;5050023;28;20461;-68
2022/08/15 03:58:01;;;;;;;13.90;10.13;;;20.40;99.90;;;;;;5050132;28;20060;-68
2022/08/15 04:00:30;;;;;;;12.43;10.38;;;20.30;99.90;;;;;;5050113;28;20049;-68
2022/08/15 04:03:08;;;;;;;13.85;10.60;;;20.40;99.90;;;;;;5033124;28;20053;-68
2022/08/15 04:05:35;;;;;;;14.27;11.20;;;20.30;99.90;;;;;;5031743;28;20044;-68
2022/08/15 04:08:03;;;;;;;14.20;10.45;;;20.30;99.90;;;;;;5047217;28;20057;-68
2022/08/15 04:10:29;;;;;;;17.02;10.80;;;20.30;99.90;;;;;;5051484;28;20048;-68
2022/08/15 04:12:55;;;;;;;14.15;10.48;;;20.30;99.90;;;;;;5052255;28;20095;-68
2022/08/15 04:15:21;;;;;;;13.13;10.80;;;20.30;99.90;;;;;;5049149;28;20140;-68
2022/08/15 04:17:47;;;;;;;12.88;9.82;;;20.30;99.90;;;;;;5048516;28;20132;-68
2022/08/15 04:20:13;;;;;;;15.15;10.85;;;20.40;99.90;;;;;;5049149;28;20045;-68
2022/08/15 04:22:43;;;;;;;12.25;10.95;;;20.30;99.90;;;;;;5049384;28;20091;-68
2022/08/15 04:25:10;;;;;;;13.00;10.85;;;20.30;99.90;;;;;;5049453;28;20045;-68
2022/08/15 04:27:38;;;;;;;15.00;10.18;;;20.30;99.90;;;;;;5052251;28;20060;-68
2022/08/15 04:30:05;;;;;;;13.57;10.13;;;20.40;99.90;;;;;;5051770;28;20049;-67
2022/08/15 04:32:31;;;;;;;12.52;9.65;;;20.40;99.90;;;;;;5049447;28;20469;-68
2022/08/15 04:34:58;;;;;;;15.20;9.70;;;20.40;99.90;;;;;;5049294;28;20051;-68
2022/08/15 04:37:25;;;;;;;15.00;10.77;;;20.50;99.90;;;;;;5049814;28;20382;-68
2022/08/15 04:39:51;;;;;;;13.93;10.85;;;20.50;99.90;;;;;;5049327;28;20041;-68
2022/08/15 04:42:21;;;;;;;15.85;10.05;;;20.40;99.90;;;;;;5049369;28;20040;-68
2022/08/15 04:44:48;;;;;;;11.98;10.27;;;20.40;99.90;;;;;;5050670;28;20067;-68
2022/08/15 04:47:15;;;;;;;12.00;10.15;;;20.50;99.90;;;;;;5050655;28;20393;-68
2022/08/15 04:49:42;;;;;;;15.55;11.13;;;20.50;99.90;;;;;;5048873;28;20073;-68
2022/08/15 04:52:14;;;;;;;12.63;10.52;;;20.50;99.90;;;;;;5049049;28;20112;-68
2022/08/15 04:54:40;;;;;;;14.45;10.65;;;20.40;99.90;;;;;;5049135;28;20126;-68
2022/08/15 04:57:08;;;;;;;12.15;10.85;;;20.40;99.90;;;;;;5049057;28;20086;-68
2022/08/15 04:59:36;;;;;;;15.23;10.32;;;20.50;99.90;;;;;;5048796;28;20112;-68
2022/08/15 05:02:03;;;;;;;13.52;10.60;;;20.50;99.90;;;;;;5049114;28;20469;-68
2022/08/15 05:04:29;;;;;;;13.70;10.20;;;20.50;99.90;;;;;;5049965;28;20072;-68
2022/08/15 05:06:55;;;;;;;15.43;10.52;;;20.50;99.90;;;;;;5048892;28;20076;-68
2022/08/15 05:09:20;;;;;;;13.93;11.02;;;20.50;99.90;;;;;;5049157;28;20041;-68
2022/08/15 05:11:46;;;;;;;13.85;10.15;;;20.60;99.90;;;;;;5048775;28;20084;-68
2022/08/15 05:14:11;;;;;;;17.17;10.10;;;20.60;99.90;;;;;;5048357;28;20497;-68
2022/08/15 05:16:37;;;;;;;15.75;10.45;;;20.60;99.90;;;;;;5050092;28;20033;-68
2022/08/15 05:19:03;;;;;;;14.23;11.32;;;20.70;99.90;;;;;;5048768;28;20072;-68
2022/08/15 05:21:29;;;;;;;13.95;11.18;;;20.70;99.90;;;;;;5048742;28;20606;-68
2022/08/15 05:23:55;;;;;;;14.07;10.70;;;20.70;99.90;;;;;;5048511;28;20458;-68
2022/08/15 05:26:21;;;;;;;15.27;11.27;;;20.80;99.90;;;;;;5051499;28;20687;-68
2022/08/15 05:28:46;;;;;;;13.25;10.88;;;20.80;99.90;;;;;;5050547;28;20045;-68
2022/08/15 05:31:13;;;;;;;18.65;11.30;;;20.80;99.90;;;;;;5050924;28;20049;-68
2022/08/15 05:33:42;;;;;;;16.33;11.45;;;20.90;99.90;;;;;;5054460;28;20091;-68
2022/08/15 05:36:08;;;;;;;17.08;11.35;;;20.90;99.90;;;;;;5058823;28;20087;-68
2022/08/15 05:39:00;;;;;;;13.90;11.75;;;21.00;99.90;;;;;;5053760;28;20149;-68
2022/08/15 05:41:57;;;;;;;12.80;10.80;;;21.00;99.90;;;;;;5052677;28;20048;-68
2022/08/15 05:44:32;;;;;;;17.25;11.70;;;21.00;99.90;;;;;;5053543;28;20045;-68
2022/08/15 05:47:16;;;;;;;15.70;11.75;;;21.10;99.90;;;;;;5052493;28;20474;-67
2022/08/15 05:49:50;;;;;;;16.80;12.15;;;21.10;99.90;;;;;;5051881;28;20059;-67
2022/08/15 05:52:51;;;;;;;15.18;12.13;;;21.10;99.90;;;;;;5035812;28;20098;-67
2022/08/15 05:55:35;;;;;;;14.88;11.23;;;21.20;99.90;;;;;;5053619;28;20045;-67
2022/08/15 05:58:38;;;;;;;13.80;11.70;;;21.20;99.90;;;;;;5052164;28;20041;-67
2022/08/15 06:01:24;;;;;;;14.32;11.40;;;21.20;99.90;;;;;;5052030;28;20505;-67
2022/08/15 06:03:55;;;;;;;13.30;11.55;;;21.20;99.90;;;;;;5051676;28;20481;-68
2022/08/15 06:06:27;;;;;;;14.10;11.55;;;21.30;99.90;;;;;;5052386;28;20045;-68
2022/08/15 06:09:00;;;;;;;15.82;12.40;;;21.30;99.90;;;;;;5052425;28;20501;-68
2022/08/15 06:11:34;;;;;;;14.85;12.27;;;21.30;99.90;;;;;;5052528;28;20450;-69
2022/08/15 06:14:24;;;;;;;13.55;11.48;;;21.40;99.90;;;;;;5051729;28;20092;-68
2022/08/15 06:16:54;;;;;;;15.27;11.32;;;21.50;99.90;;;;;;5053521;28;20421;-69
2022/08/15 06:19:22;;;;;;;13.20;11.32;;;21.50;99.90;;;;;;5052017;28;20493;-69
2022/08/15 06:22:13;;;;;;;13.90;11.75;;;21.50;99.90;;;;;;5053534;28;20546;-69
2022/08/15 06:24:55;;;;;;;15.40;12.32;;;21.50;99.90;;;;;;5021228;28;20072;-69
2022/08/15 06:27:42;;;;;;;16.02;12.57;;;21.60;99.90;;;;;;5052441;28;20091;-69
2022/08/15 06:30:21;;;;;;;16.83;12.13;;;21.50;99.90;;;;;;5051875;28;20102;-69
2022/08/15 06:33:06;;;;;;;17.05;12.65;;;21.50;99.90;;;;;;5052832;28;20048;-69
2022/08/15 06:36:11;;;;;;;14.98;11.85;;;21.50;99.90;;;;;;5051759;28;20120;-69
2022/08/15 06:39:01;;;;;;;15.80;12.40;;;21.60;99.90;;;;;;4999202;28;20060;-69
2022/08/15 06:42:04;;;;;;;14.55;11.90;;;21.70;99.90;;;;;;5051196;28;20099;-69
2022/08/15 06:44:33;;;;;;;18.60;13.48;;;21.70;99.90;;;;;;5055287;28;20136;-69
2022/08/15 06:47:04;;;;;;;21.88;14.55;;;21.70;99.90;;;;;;5058859;28;20093;-69
2022/08/15 06:49:36;;;;;;;15.27;11.93;;;21.70;99.90;;;;;;5053202;28;20037;-68
2022/08/15 06:52:02;;;;;;;15.15;12.27;;;21.80;99.90;;;;;;5051583;28;20158;-68
2022/08/15 06:54:29;;;;;;;16.73;13.25;;;21.80;99.90;;;;;;5051380;28;20440;-68
2022/08/15 06:57:32;;;;;;;18.25;13.52;;;21.80;99.90;;;;;;5051432;28;20569;-68
2022/08/15 07:00:09;;;;;;;15.45;13.10;;;21.90;99.90;;;;;;5051536;28;20041;-69
2022/08/15 07:02:53;;;;;;;14.40;11.88;;;21.90;99.90;;;;;;5050896;28;20166;-69
2022/08/15 07:05:26;;;;;;;16.08;13.35;;;22.00;99.90;;;;;;5051416;28;20048;-69
2022/08/15 07:08:17;;;;;;;16.50;12.52;;;22.10;99.90;;;;;;5050501;28;20041;-69
2022/08/15 07:11:09;;;;;;;15.23;12.80;;;22.20;99.90;;;;;;5051260;28;20049;-69
2022/08/15 07:14:03;;;;;;;17.17;12.50;;;22.20;99.90;;;;;;5051168;28;20073;-69
2022/08/15 07:16:38;;;;;;;16.95;13.00;;;22.30;99.90;;;;;;5051045;28;20272;-69
2022/08/15 07:19:05;;;;;;;18.63;13.57;;;22.30;99.90;;;;;;5051047;28;20163;-69
2022/08/15 07:21:30;;;;;;;17.65;14.60;;;22.40;99.90;;;;;;5050910;28;20068;-69
2022/08/15 07:24:11;;;;;;;20.52;13.55;;;22.50;99.90;;;;;;5050878;28;20068;-69
2022/08/15 07:26:51;;;;;;;18.13;13.60;;;22.60;99.90;;;;;;5052311;28;20373;-69
2022/08/15 07:29:41;;;;;;;19.70;13.95;;;22.70;99.90;;;;;;5051175;28;20045;-69
2022/08/15 07:32:28;;;;;;;15.85;12.85;;;22.80;99.90;;;;;;5052220;28;20063;-69
2022/08/15 07:35:14;;;;;;;16.58;12.73;;;22.80;99.90;;;;;;5050468;28;20040;-69
2022/08/15 07:37:50;;;;;;;16.48;12.55;;;22.90;99.90;;;;;;5050645;28;20124;-68
2022/08/15 07:40:24;;;;;;;17.17;11.55;;;23.00;99.90;;;;;;5050428;28;20053;-68
2022/08/15 07:42:51;;;;;;;19.48;12.50;;;23.00;99.90;;;;;;5050176;28;20045;-69
2022/08/15 07:45:28;;;;;;;17.27;12.77;;;23.00;99.90;;;;;;5050250;28;20079;-69
2022/08/15 07:48:06;;;;;;;16.20;12.35;;;23.00;99.90;;;;;;5050647;28;20099;-69
2022/08/15 07:50:37;;;;;;;18.63;12.55;;;23.00;99.90;;;;;;5064971;28;20053;-70
2022/08/15 07:53:47;;;;;;;18.63;13.15;;;23.10;99.90;;;;;;5058305;28;20052;-69
2022/08/15 07:56:15;;;;;;;14.75;12.95;;;23.20;99.90;;;;;;5022410;28;20482;-69
2022/08/15 07:58:42;;;;;;;13.77;11.90;;;23.20;99.90;;;;;;5057194;28;20083;-69
2022/08/15 08:01:23;;;;;;;16.63;12.10;;;23.20;99.90;;;;;;5057184;28;20044;-69
2022/08/15 08:03:57;;;;;;;17.98;11.70;;;23.30;99.90;;;;;;5052408;28;20049;-70
2022/08/15 08:06:36;;;;;;;18.17;11.63;;;23.30;99.90;;;;;;5035662;28;20037;-70
2022/08/15 08:09:38;;;;;;;19.05;12.05;;;23.40;99.90;;;;;;5052123;28;20114;-70
2022/08/15 08:12:09;;;;;;;15.32;11.82;;;23.40;99.90;;;;;;5050812;28;20477;-69
2022/08/15 08:15:02;;;;;;;23.05;12.02;;;23.40;99.90;;;;;;5050084;28;20133;-69
2022/08/15 08:17:32;;;;;;;;;;;23.40;99.90;;;;;;5050210;28;20045;-69
2022/08/15 08:20:32;;;;;;;14.45;11.52;;;23.50;99.90;;;;;;5049541;28;19928;-69
2022/08/15 08:23:04;;;;;;;20.70;11.30;;;23.70;99.90;;;;;;5049741;28;20041;-69
2022/08/15 08:25:44;;;;;;;17.27;13.18;;;23.80;99.90;;;;;;5050966;28;20064;-69
2022/08/15 08:28:35;;;;;;;18.63;13.48;;;23.80;99.90;;;;;;5051118;28;20048;-69
2022/08/15 08:31:26;;;;;;;16.98;13.52;;;23.80;99.90;;;;;;5050942;28;20040;-69
2022/08/15 08:34:24;;;;;;;17.90;13.53;;;23.90;99.90;;;;;;5050573;28;20408;-69
2022/08/15 08:37:02;;;;;;;16.95;14.10;;;24.00;99.90;;;;;;5049542;28;20493;-69
2022/08/15 08:39:43;;;;;;;16.83;13.00;;;24.00;99.90;;;;;;5049325;28;20041;-69
2022/08/15 08:42:15;;;;;;;20.45;14.73;;;24.10;99.90;;;;;;5050599;28;20128;-69
2022/08/15 08:44:43;;;;;;;;;;;24.20;99.90;;;;;;5049417;28;20041;-69
2022/08/15 08:47:12;;;;;;;16.40;12.45;;;24.30;99.90;;;;;;5032398;28;20003;-69
2022/08/15 08:50:16;;;;;;;19.30;12.98;;;24.40;99.90;;;;;;5048528;28;20098;-69
2022/08/15 08:53:07;;;;;;;22.50;13.07;;;24.40;99.90;;;;;;5047960;28;20425;-69
2022/08/15 08:55:52;;;;;;;17.40;13.02;;;24.40;99.90;;;;;;5048860;28;20120;-69
2022/08/15 08:58:28;;;;;;;21.80;14.50;;;24.40;99.90;;;;;;5062976;28;20048;-69
2022/08/15 09:00:55;;;;;;;19.08;13.23;;;24.40;99.90;;;;;;5057103;28;20052;-68
2022/08/15 09:03:29;;;;;;;17.25;13.05;;;24.40;99.90;;;;;;5050227;28;20370;-69
2022/08/15 09:05:57;;;;;;;16.88;13.43;;;24.50;99.90;;;;;;5049246;28;20051;-69
2022/08/15 09:08:46;;;;;;;21.00;13.77;;;24.50;99.90;;;;;;5049082;28;20507;-69
2022/08/15 09:11:27;;;;;;;17.10;13.43;;;24.60;99.90;;;;;;5049093;28;20508;-69
2022/08/15 09:13:56;;;;;;;17.20;13.40;;;24.60;99.90;;;;;;5048414;28;20386;-69
2022/08/15 09:16:31;;;;;;;22.15;13.15;;;24.70;99.90;;;;;;5052949;28;20048;-69
2022/08/15 09:19:14;;;;;;;18.17;13.05;;;24.60;99.90;;;;;;5053453;28;20073;-68
2022/08/15 09:21:42;;;;;;;16.58;13.23;;;24.60;99.90;;;;;;5032034;28;20519;-69
2022/08/15 09:24:09;;;;;;;22.30;13.48;;;24.60;99.90;;;;;;5048622;28;20072;-69
2022/08/15 09:26:56;;;;;;;17.50;12.60;;;24.50;99.90;;;;;;5048836;28;20473;-68
2022/08/15 09:29:29;;;;;;;24.85;14.48;;;24.50;99.90;;;;;;5050938;28;20102;-69
2022/08/15 09:32:26;;;;;;;19.42;13.77;;;24.50;99.90;;;;;;5048708;28;20402;-69
2022/08/15 09:35:13;;;;;;;24.85;12.25;;;24.50;99.90;;;;;;5048597;28;20478;-69
2022/08/15 09:37:44;;;;;;;19.83;14.60;;;24.50;99.90;;;;;;5048452;28;20129;-69
2022/08/15 09:40:27;;;;;;;17.92;15.00;;;24.50;99.90;;;;;;5048377;28;20049;-69
2022/08/15 09:43:08;;;;;;;20.73;15.30;;;24.60;99.90;;;;;;5048106;28;20117;-69
2022/08/15 09:45:43;;;;;;;21.63;16.27;;;24.70;99.90;;;;;;5048664;28;20393;-69
2022/08/15 09:48:21;;;;;;;23.98;14.55;;;24.70;99.90;;;;;;5048232;28;20060;-69
2022/08/15 09:51:14;;;;;;;23.05;15.23;;;24.70;99.90;;;;;;5048139;28;20048;-69
2022/08/15 09:53:54;;;;;;;23.00;16.83;;;24.80;99.90;;;;;;5048336;28;20063;-69
2022/08/15 09:56:25;;;;;;;20.30;16.25;;;24.80;99.90;;;;;;5049715;28;20044;-68
2022/08/15 09:59:08;;;;;;;20.58;15.68;;;24.70;99.90;;;;;;5048134;28;20048;-68
2022/08/15 10:01:53;;;;;;;23.17;17.13;;;24.80;99.90;;;;;;5048074;28;20049;-68
2022/08/15 10:04:23;;;;;;;28.30;19.00;;;24.60;99.90;;;;;;5048100;28;20045;-68
2022/08/15 10:07:01;;;;;;;24.35;17.42;;;24.60;99.90;;;;;;5050444;28;20097;-68
2022/08/15 10:09:32;;;;;;;25.88;16.08;;;24.60;99.90;;;;;;5058991;28;20056;-68
2022/08/15 10:12:17;;;;;;;22.92;17.52;;;24.60;99.90;;;;;;5052304;28;20053;-67
2022/08/15 10:14:46;;;;;;;27.58;20.00;;;24.70;99.90;;;;;;5047964;28;20049;-68
2022/08/15 10:17:37;;;;;;;24.08;19.10;;;24.50;99.90;;;;;;5049806;28;20386;-67
2022/08/15 10:20:15;;;;;;;23.55;16.88;;;24.50;99.90;;;;;;5051362;28;20076;-68
2022/08/15 10:22:49;;;;;;;21.13;16.65;;;24.40;99.90;;;;;;5051665;28;20136;-68
2022/08/15 10:25:29;;;;;;;24.33;18.23;;;24.50;99.90;;;;;;5051489;28;20047;-67
2022/08/15 10:28:05;;;;;;;22.60;15.18;;;24.50;99.90;;;;;;5052953;28;20137;-68
2022/08/15 10:30:34;;;;;;;25.42;17.88;;;24.50;99.90;;;;;;5051359;28;20531;-68
2022/08/15 10:33:20;;;;;;;26.17;18.40;;;24.60;99.90;;;;;;5051972;28;20133;-68
2022/08/15 10:35:47;;;;;;;27.35;18.52;;;24.60;99.90;;;;;;5052631;28;20051;-68
2022/08/15 10:38:21;;;;;;;28.45;20.25;;;24.70;99.90;;;;;;5051368;28;20057;-67
2022/08/15 10:41:03;;;;;;;33.97;20.35;;;24.70;99.90;;;;;;5051184;28;20063;-68
2022/08/15 10:43:32;;;;;;;;;;;24.80;99.90;;;;;;5051716;28;20401;-68
2022/08/15 10:46:19;;;;;;;22.67;17.58;;;24.80;99.90;;;;;;5051134;28;19966;-67
2022/08/15 10:49:11;;;;;;;21.35;15.40;;;24.80;99.90;;;;;;5051072;28;20408;-68
2022/08/15 10:51:43;;;;;;;;;;;24.90;99.90;;;;;;5051667;28;20041;-67
2022/08/15 10:54:12;;;;;;;;;;;24.90;99.90;;;;;;5051129;28;19923;-67
2022/08/15 10:56:39;;;;;;;29.30;19.40;;;24.80;99.90;;;;;;5050767;28;19917;-68
2022/08/15 10:59:34;;;;;;;36.00;21.98;;;24.80;99.90;;;;;;5052168;28;20099;-68
2022/08/15 11:02:16;;;;;;;24.00;19.00;;;24.70;99.90;;;;;;5050571;28;20110;-68
2022/08/15 11:04:43;;;;;;;25.98;19.40;;;24.70;99.90;;;;;;5050646;28;20442;-68
2022/08/15 11:07:36;;;;;;;27.02;19.23;;;24.80;99.90;;;;;;5034397;28;20491;-68
2022/08/15 11:10:10;;;;;;;26.13;19.50;;;24.80;99.90;;;;;;5050628;28;20044;-68
2022/08/15 11:12:42;;;;;;;28.58;20.42;;;24.90;99.90;;;;;;5036189;28;20045;-68
2022/08/15 11:15:19;;;;;;;30.80;21.77;;;25.00;99.90;;;;;;5059581;28;20044;-68
2022/08/15 11:17:50;;;;;;;30.52;21.90;;;25.10;99.90;;;;;;5051863;28;20490;-67
2022/08/15 11:20:21;;;;;;;29.52;21.35;;;25.20;99.90;;;;;;5033624;28;20079;-68
2022/08/15 11:22:53;;;;;;;27.53;19.50;;;25.20;99.90;;;;;;5055709;28;20041;-68
2022/08/15 11:25:24;;;;;;;29.17;21.23;;;25.30;99.90;;;;;;5058097;28;20044;-66
2022/08/15 11:28:10;;;;;;;28.02;19.23;;;25.40;99.90;;;;;;5059024;28;20041;-66
2022/08/15 11:30:41;;;;;;;31.52;20.65;;;25.40;99.90;;;;;;5060619;28;20117;-66
2022/08/15 11:33:34;;;;;;;32.67;20.90;;;25.50;99.90;;;;;;5059411;28;20055;-67
2022/08/15 11:36:26;;;;;;;28.17;21.27;;;25.50;99.90;;;;;;5058448;28;20047;-67
2022/08/15 11:39:00;;;;;;;35.30;23.58;;;25.60;99.90;;;;;;5043799;28;20040;-66
2022/08/15 11:41:37;;;;;;;32.90;22.55;;;25.70;99.90;;;;;;5059242;28;20119;-66
2022/08/15 11:44:08;;;;;;;29.42;21.80;;;25.80;99.90;;;;;;5058498;28;20049;-66
2022/08/15 11:46:34;;;;;;;29.88;20.48;;;25.80;99.90;;;;;;5058552;28;20049;-66
2022/08/15 11:49:07;;;;;;;30.13;22.27;;;26.00;99.90;;;;;;5052336;28;20394;-67
2022/08/15 11:51:41;;;;;;;27.90;20.88;;;25.90;99.90;;;;;;5051643;28;20133;-66
2022/08/15 13:14:46;;;;;;;12.80;9.80;;;26.50;99.90;;;;;;5029453;28;20048;-64
2022/08/15 13:17:13;;;;;;;14.10;9.75;;;26.50;99.90;;;;;;5029447;28;20045;-64
2022/08/15 13:25:12;;;;;;;11.27;9.07;;;26.50;99.90;;;;;;5029495;28;20115;-64
2022/08/15 13:27:38;;;;;;;13.70;8.30;;;26.50;99.90;;;;;;5030688;28;20111;-64
2022/08/15 13:30:10;;;;;;;11.85;8.90;;;26.60;99.90;;;;;;5029800;28;20046;-64
2022/08/15 13:32:36;;;;;;;9.20;7.82;;;26.60;99.90;;;;;;5030616;28;20049;-64
2022/08/15 13:35:06;;;;;;;11.98;8.95;;;26.60;99.90;;;;;;5012935;28;20074;-64
2022/08/15 13:37:32;;;;;;;12.18;10.10;;;26.70;99.90;;;;;;5030848;28;20046;-64
2022/08/15 13:39:58;;;;;;;11.60;8.27;;;26.70;99.90;;;;;;5030288;28;20037;-64
2022/08/15 13:42:24;;;;;;;10.70;8.57;;;26.80;99.90;;;;;;5030669;28;20041;-63
2022/08/15 13:44:52;;;;;;;14.82;7.70;;;26.90;99.90;;;;;;5030512;28;20041;-63
2022/08/15 13:47:23;;;;;;;9.18;7.90;;;26.90;99.90;;;;;;5030694;28;20055;-64
2022/08/15 13:49:49;;;;;;;11.07;6.75;;;26.90;99.90;;;;;;5029774;28;20432;-64
2022/08/15 13:52:15;;;;;;;13.80;7.55;;;27.00;99.90;;;;;;5032642;28;20113;-64
2022/08/15 13:54:41;;;;;;;9.02;6.88;;;27.10;99.90;;;;;;5034502;28;20033;-64
2022/08/15 13:57:07;;;;;;;11.88;7.47;;;27.00;99.90;;;;;;5029789;28;20064;-64
2022/08/15 13:59:34;;;;;;;8.15;7.25;;;27.10;99.90;;;;;;5032282;28;20037;-64
2022/08/15 14:02:02;;;;;;;9.63;7.60;;;27.00;99.90;;;;;;5032469;28;20116;-64
2022/08/15 14:04:38;;;;;;;9.43;6.57;;;27.00;99.90;;;;;;5033762;28;20041;-64
2022/08/15 14:07:06;;;;;;;8.35;7.28;;;27.00;99.90;;;;;;5033732;28;20068;-64
2022/08/15 14:09:32;;;;;;;12.32;7.07;;;27.00;99.90;;;;;;5033323;28;20447;-65
2022/08/15 14:11:58;;;;;;;9.15;6.72;;;27.00;99.90;;;;;;5015819;28;20041;-64
2022/08/15 14:14:25;;;;;;;12.90;6.53;;;27.00;99.90;;;;;;5033863;28;20045;-65
2022/08/15 14:16:52;;;;;;;10.82;6.35;;;27.00;99.90;;;;;;5033914;28;20037;-64
2022/08/15 14:19:19;;;;;;;10.27;5.82;;;27.00;99.90;;;;;;5033703;28;20112;-65
2022/08/15 14:21:45;;;;;;;11.15;5.57;;;27.00;99.90;;;;;;5032193;28;20128;-65
2022/08/15 14:24:12;;;;;;;6.90;4.43;;;27.00;99.90;;;;;;5033755;28;20670;-64
2022/08/15 14:26:42;;;;;;;6.70;4.35;;;27.00;99.90;;;;;;5033831;28;20033;-64
2022/08/15 14:29:13;;;;;;;4.90;3.75;;;27.00;99.90;;;;;;5033360;28;20042;-65
2022/08/15 14:31:39;;;;;;;5.30;3.70;;;27.10;99.90;;;;;;5033733;28;20515;-64
2022/08/15 14:34:07;;;;;;;4.28;3.63;;;27.10;99.90;;;;;;5033687;28;20041;-65